sensor_id;sensor_type;location;lat;lon;timestamp;temperature;humidity
10171;DHT22;5127;50.922;6.988;2023-02-19T00:01:05;13.70;71.80
10171;DHT22;5127;50.922;6.988;2023-02-19T00:03:32;13.60;71.80
10171;DHT22;5127;50.922;6.988;2023-02-19T00:06:00;13.70;72.20
10171;DHT22;5127;50.922;6.988;2023-02-19T00:08:28;13.70;72.00
10171;DHT22;5127;50.922;6.988;2023-02-19T00:11:00;13.60;71.90
10171;DHT22;5127;50.922;6.988;2023-02-19T00:13:28;13.60;72.00
10171;DHT22;5127;50.922;6.988;2023-02-19T00:15:55;13.60;72.00
10171;DHT22;5127;50.922;6.988;2023-02-19T00:18:22;13.60;71.90
10171;DHT22;5127;50.922;6.988;2023-02-19T00:20:50;13.70;72.10
10171;DHT22;5127;50.922;6.988;2023-02-19T00:23:17;13.60;72.00
10171;DHT22;5127;50.922;6.988;2023-02-19T00:25:44;13.60;72.00
10171;DHT22;5127;50.922;6.988;2023-02-19T00:28:12;13.60;72.00
10171;DHT22;5127;50.922;6.988;2023-02-19T00:30:40;13.60;72.20
10171;DHT22;5127;50.922;6.988;2023-02-19T00:33:07;13.60;72.20
10171;DHT22;5127;50.922;6.988;2023-02-19T00:35:34;13.60;72.20
10171;DHT22;5127;50.922;6.988;2023-02-19T00:38:02;13.60;72.20
10171;DHT22;5127;50.922;6.988;2023-02-19T00:40:29;13.60;72.20
10171;DHT22;5127;50.922;6.988;2023-02-19T00:42:57;13.60;72.30
10171;DHT22;5127;50.922;6.988;2023-02-19T00:45:26;13.60;72.30
10171;DHT22;5127;50.922;6.988;2023-02-19T00:47:54;13.60;72.30
10171;DHT22;5127;50.922;6.988;2023-02-19T00:50:21;13.60;72.40
10171;DHT22;5127;50.922;6.988;2023-02-19T00:52:48;13.50;72.40
10171;DHT22;5127;50.922;6.988;2023-02-19T00:55:15;13.50;72.40
10171;DHT22;5127;50.922;6.988;2023-02-19T00:57:43;13.50;72.40
10171;DHT22;5127;50.922;6.988;2023-02-19T01:00:11;13.50;72.50
10171;DHT22;5127;50.922;6.988;2023-02-19T01:02:40;13.50;72.50
10171;DHT22;5127;50.922;6.988;2023-02-19T01:05:07;13.60;72.70
10171;DHT22;5127;50.922;6.988;2023-02-19T01:07:35;13.50;72.70
10171;DHT22;5127;50.922;6.988;2023-02-19T01:10:03;13.50;72.70
10171;DHT22;5127;50.922;6.988;2023-02-19T01:12:30;13.50;72.70
10171;DHT22;5127;50.922;6.988;2023-02-19T01:14:57;13.50;72.70
10171;DHT22;5127;50.922;6.988;2023-02-19T01:17:24;13.50;72.60
10171;DHT22;5127;50.922;6.988;2023-02-19T01:19:53;13.50;72.60
10171;DHT22;5127;50.922;6.988;2023-02-19T01:22:20;13.50;72.60
10171;DHT22;5127;50.922;6.988;2023-02-19T01:24:47;13.50;72.60
10171;DHT22;5127;50.922;6.988;2023-02-19T01:27:15;13.50;72.70
10171;DHT22;5127;50.922;6.988;2023-02-19T01:29:42;13.50;72.70
10171;DHT22;5127;50.922;6.988;2023-02-19T01:32:09;13.50;72.70
10171;DHT22;5127;50.922;6.988;2023-02-19T01:34:36;13.50;72.70
10171;DHT22;5127;50.922;6.988;2023-02-19T01:37:05;13.50;72.70
10171;DHT22;5127;50.922;6.988;2023-02-19T01:39:36;13.50;72.80
10171;DHT22;5127;50.922;6.988;2023-02-19T01:42:04;13.50;72.80
10171;DHT22;5127;50.922;6.988;2023-02-19T01:48:03;13.50;73.20
10171;DHT22;5127;50.922;6.988;2023-02-19T01:50:35;13.50;72.70
10171;DHT22;5127;50.922;6.988;2023-02-19T01:53:06;13.60;72.80
10171;DHT22;5127;50.922;6.988;2023-02-19T01:55:34;13.50;72.70
10171;DHT22;5127;50.922;6.988;2023-02-19T01:58:02;13.50;72.70
10171;DHT22;5127;50.922;6.988;2023-02-19T02:00:31;13.50;72.80
10171;DHT22;5127;50.922;6.988;2023-02-19T02:02:59;13.50;72.80
10171;DHT22;5127;50.922;6.988;2023-02-19T02:05:43;13.60;72.80
10171;DHT22;5127;50.922;6.988;2023-02-19T02:08:14;13.50;72.60
10171;DHT22;5127;50.922;6.988;2023-02-19T02:11:00;13.60;72.80
10171;DHT22;5127;50.922;6.988;2023-02-19T02:13:28;13.60;72.80
10171;DHT22;5127;50.922;6.988;2023-02-19T02:16:03;13.50;72.70
10171;DHT22;5127;50.922;6.988;2023-02-19T02:18:42;13.50;72.60
10171;DHT22;5127;50.922;6.988;2023-02-19T02:21:44;13.60;72.60
10171;DHT22;5127;50.922;6.988;2023-02-19T02:24:43;13.60;72.40
10171;DHT22;5127;50.922;6.988;2023-02-19T02:27:27;13.60;72.40
10171;DHT22;5127;50.922;6.988;2023-02-19T02:33:00;13.60;72.50
10171;DHT22;5127;50.922;6.988;2023-02-19T02:35:50;13.50;72.60
10171;DHT22;5127;50.922;6.988;2023-02-19T02:38:22;13.70;72.50
10171;DHT22;5127;50.922;6.988;2023-02-19T02:40:53;13.60;72.70
10171;DHT22;5127;50.922;6.988;2023-02-19T02:43:21;13.60;72.70
10171;DHT22;5127;50.922;6.988;2023-02-19T02:45:51;13.50;72.70
10171;DHT22;5127;50.922;6.988;2023-02-19T02:48:33;13.50;72.70
10171;DHT22;5127;50.922;6.988;2023-02-19T02:51:06;13.50;72.70
10171;DHT22;5127;50.922;6.988;2023-02-19T02:53:43;13.50;72.70
10171;DHT22;5127;50.922;6.988;2023-02-19T02:56:30;13.50;72.70
10171;DHT22;5127;50.922;6.988;2023-02-19T02:59:00;13.50;72.80
10171;DHT22;5127;50.922;6.988;2023-02-19T03:01:33;13.50;72.80
10171;DHT22;5127;50.922;6.988;2023-02-19T03:04:25;13.40;72.70
10171;DHT22;5127;50.922;6.988;2023-02-19T03:06:54;13.40;72.80
10171;DHT22;5127;50.922;6.988;2023-02-19T03:09:24;13.40;72.80
10171;DHT22;5127;50.922;6.988;2023-02-19T03:11:58;13.40;72.90
10171;DHT22;5127;50.922;6.988;2023-02-19T03:14:47;13.40;72.90
10171;DHT22;5127;50.922;6.988;2023-02-19T03:17:37;13.40;72.90
10171;DHT22;5127;50.922;6.988;2023-02-19T03:20:25;13.40;72.80
10171;DHT22;5127;50.922;6.988;2023-02-19T03:22:55;13.40;72.90
10171;DHT22;5127;50.922;6.988;2023-02-19T03:25:25;13.40;72.90
10171;DHT22;5127;50.922;6.988;2023-02-19T03:28:15;13.40;73.00
10171;DHT22;5127;50.922;6.988;2023-02-19T03:30:48;13.40;73.00
10171;DHT22;5127;50.922;6.988;2023-02-19T03:33:20;13.40;73.00
10171;DHT22;5127;50.922;6.988;2023-02-19T03:35:51;13.40;72.90
10171;DHT22;5127;50.922;6.988;2023-02-19T03:38:24;13.40;73.00
10171;DHT22;5127;50.922;6.988;2023-02-19T03:40:56;13.40;73.10
10171;DHT22;5127;50.922;6.988;2023-02-19T03:43:31;13.40;73.10
10171;DHT22;5127;50.922;6.988;2023-02-19T03:46:06;13.30;72.90
10171;DHT22;5127;50.922;6.988;2023-02-19T03:48:42;13.40;72.90
10171;DHT22;5127;50.922;6.988;2023-02-19T03:51:19;13.40;72.90
10171;DHT22;5127;50.922;6.988;2023-02-19T03:53:54;13.40;72.90
10171;DHT22;5127;50.922;6.988;2023-02-19T03:56:29;13.40;73.00
10171;DHT22;5127;50.922;6.988;2023-02-19T03:59:02;13.40;72.90
10171;DHT22;5127;50.922;6.988;2023-02-19T04:01:39;13.40;72.90
10171;DHT22;5127;50.922;6.988;2023-02-19T04:04:13;13.40;72.90
10171;DHT22;5127;50.922;6.988;2023-02-19T04:06:44;13.40;72.90
10171;DHT22;5127;50.922;6.988;2023-02-19T04:09:13;13.40;72.90
10171;DHT22;5127;50.922;6.988;2023-02-19T04:11:47;13.40;72.90
10171;DHT22;5127;50.922;6.988;2023-02-19T04:14:20;13.40;72.90
10171;DHT22;5127;50.922;6.988;2023-02-19T04:16:51;13.40;72.80
10171;DHT22;5127;50.922;6.988;2023-02-19T04:19:23;13.40;72.90
10171;DHT22;5127;50.922;6.988;2023-02-19T04:21:53;13.40;72.80
10171;DHT22;5127;50.922;6.988;2023-02-19T04:24:25;13.40;72.90
10171;DHT22;5127;50.922;6.988;2023-02-19T04:26:54;13.40;72.90
10171;DHT22;5127;50.922;6.988;2023-02-19T04:29:21;13.40;72.90
10171;DHT22;5127;50.922;6.988;2023-02-19T04:31:49;13.40;72.80
10171;DHT22;5127;50.922;6.988;2023-02-19T04:34:16;13.40;72.80
10171;DHT22;5127;50.922;6.988;2023-02-19T04:36:44;13.40;72.80
10171;DHT22;5127;50.922;6.988;2023-02-19T04:39:12;13.40;72.80
10171;DHT22;5127;50.922;6.988;2023-02-19T04:41:39;13.40;72.80
10171;DHT22;5127;50.922;6.988;2023-02-19T04:44:06;13.30;72.70
10171;DHT22;5127;50.922;6.988;2023-02-19T04:46:33;13.30;72.70
10171;DHT22;5127;50.922;6.988;2023-02-19T04:49:01;13.30;72.70
10171;DHT22;5127;50.922;6.988;2023-02-19T04:51:28;13.30;72.70
10171;DHT22;5127;50.922;6.988;2023-02-19T04:53:56;13.30;72.80
10171;DHT22;5127;50.922;6.988;2023-02-19T04:56:24;13.30;72.90
10171;DHT22;5127;50.922;6.988;2023-02-19T04:58:51;13.20;73.50
10171;DHT22;5127;50.922;6.988;2023-02-19T05:01:18;13.20;72.90
10171;DHT22;5127;50.922;6.988;2023-02-19T05:03:45;13.20;73.00
10171;DHT22;5127;50.922;6.988;2023-02-19T05:06:13;13.20;73.00
10171;DHT22;5127;50.922;6.988;2023-02-19T05:08:40;13.10;73.00
10171;DHT22;5127;50.922;6.988;2023-02-19T05:11:10;13.20;73.10
10171;DHT22;5127;50.922;6.988;2023-02-19T05:13:39;13.10;73.00
10171;DHT22;5127;50.922;6.988;2023-02-19T05:16:09;13.10;73.00
10171;DHT22;5127;50.922;6.988;2023-02-19T05:18:39;13.00;73.00
10171;DHT22;5127;50.922;6.988;2023-02-19T05:21:06;13.00;73.00
10171;DHT22;5127;50.922;6.988;2023-02-19T05:23:34;13.00;73.10
10171;DHT22;5127;50.922;6.988;2023-02-19T05:26:04;13.00;73.10
10171;DHT22;5127;50.922;6.988;2023-02-19T05:28:33;13.00;73.10
10171;DHT22;5127;50.922;6.988;2023-02-19T05:31:04;12.90;73.00
10171;DHT22;5127;50.922;6.988;2023-02-19T05:33:32;12.90;73.10
10171;DHT22;5127;50.922;6.988;2023-02-19T05:36:04;12.80;73.10
10171;DHT22;5127;50.922;6.988;2023-02-19T05:38:32;12.80;73.20
10171;DHT22;5127;50.922;6.988;2023-02-19T05:41:07;12.80;73.30
10171;DHT22;5127;50.922;6.988;2023-02-19T05:43:35;12.80;73.40
10171;DHT22;5127;50.922;6.988;2023-02-19T05:46:04;12.70;73.40
10171;DHT22;5127;50.922;6.988;2023-02-19T05:48:31;12.70;73.40
10171;DHT22;5127;50.922;6.988;2023-02-19T05:51:01;12.70;73.50
10171;DHT22;5127;50.922;6.988;2023-02-19T05:53:29;12.70;73.60
10171;DHT22;5127;50.922;6.988;2023-02-19T05:55:56;12.70;73.60
10171;DHT22;5127;50.922;6.988;2023-02-19T05:58:24;12.70;73.60
10171;DHT22;5127;50.922;6.988;2023-02-19T06:00:53;12.70;73.60
10171;DHT22;5127;50.922;6.988;2023-02-19T06:03:21;12.70;73.60
10171;DHT22;5127;50.922;6.988;2023-02-19T06:05:48;12.60;73.50
10171;DHT22;5127;50.922;6.988;2023-02-19T06:08:16;12.60;73.50
10171;DHT22;5127;50.922;6.988;2023-02-19T06:10:43;12.60;73.60
10171;DHT22;5127;50.922;6.988;2023-02-19T06:13:10;12.60;73.70
10171;DHT22;5127;50.922;6.988;2023-02-19T06:15:37;12.50;73.70
10171;DHT22;5127;50.922;6.988;2023-02-19T06:18:06;12.50;73.80
10171;DHT22;5127;50.922;6.988;2023-02-19T06:20:34;12.50;74.00
10171;DHT22;5127;50.922;6.988;2023-02-19T06:23:01;12.50;74.10
10171;DHT22;5127;50.922;6.988;2023-02-19T06:25:28;12.50;74.30
10171;DHT22;5127;50.922;6.988;2023-02-19T06:27:56;12.50;74.40
10171;DHT22;5127;50.922;6.988;2023-02-19T06:30:23;12.50;74.40
10171;DHT22;5127;50.922;6.988;2023-02-19T06:32:51;12.50;74.50
10171;DHT22;5127;50.922;6.988;2023-02-19T06:35:20;12.50;74.40
10171;DHT22;5127;50.922;6.988;2023-02-19T06:37:48;12.50;74.30
10171;DHT22;5127;50.922;6.988;2023-02-19T06:40:15;12.40;74.30
10171;DHT22;5127;50.922;6.988;2023-02-19T06:42:43;12.40;74.30
10171;DHT22;5127;50.922;6.988;2023-02-19T06:45:10;12.40;74.40
10171;DHT22;5127;50.922;6.988;2023-02-19T06:47:37;12.40;74.50
10171;DHT22;5127;50.922;6.988;2023-02-19T06:50:05;12.40;74.60
10171;DHT22;5127;50.922;6.988;2023-02-19T06:52:33;12.40;74.60
10171;DHT22;5127;50.922;6.988;2023-02-19T06:55:00;12.40;74.70
10171;DHT22;5127;50.922;6.988;2023-02-19T06:57:28;12.40;74.70
10171;DHT22;5127;50.922;6.988;2023-02-19T06:59:55;12.40;74.70
10171;DHT22;5127;50.922;6.988;2023-02-19T07:02:22;12.40;74.70
10171;DHT22;5127;50.922;6.988;2023-02-19T07:04:49;12.40;74.70
10171;DHT22;5127;50.922;6.988;2023-02-19T07:07:17;12.40;74.70
10171;DHT22;5127;50.922;6.988;2023-02-19T07:09:45;12.40;74.70
10171;DHT22;5127;50.922;6.988;2023-02-19T07:12:12;12.40;74.70
10171;DHT22;5127;50.922;6.988;2023-02-19T07:14:40;12.40;74.80
10171;DHT22;5127;50.922;6.988;2023-02-19T07:17:07;12.40;74.80
10171;DHT22;5127;50.922;6.988;2023-02-19T07:19:34;12.40;74.90
10171;DHT22;5127;50.922;6.988;2023-02-19T07:22:01;12.40;74.90
10171;DHT22;5127;50.922;6.988;2023-02-19T07:24:29;12.50;75.00
10171;DHT22;5127;50.922;6.988;2023-02-19T07:26:57;12.40;74.90
10171;DHT22;5127;50.922;6.988;2023-02-19T07:29:24;12.40;74.90
10171;DHT22;5127;50.922;6.988;2023-02-19T07:31:52;12.40;74.90
10171;DHT22;5127;50.922;6.988;2023-02-19T07:34:19;12.40;74.90
10171;DHT22;5127;50.922;6.988;2023-02-19T07:36:46;12.40;74.90
10171;DHT22;5127;50.922;6.988;2023-02-19T07:39:14;12.40;75.00
10171;DHT22;5127;50.922;6.988;2023-02-19T07:41:41;12.30;75.00
10171;DHT22;5127;50.922;6.988;2023-02-19T07:44:13;12.30;75.00
10171;DHT22;5127;50.922;6.988;2023-02-19T07:46:41;12.30;75.00
10171;DHT22;5127;50.922;6.988;2023-02-19T07:49:09;12.30;75.10
10171;DHT22;5127;50.922;6.988;2023-02-19T07:51:36;12.30;75.10
10171;DHT22;5127;50.922;6.988;2023-02-19T07:54:04;12.30;75.20
10171;DHT22;5127;50.922;6.988;2023-02-19T07:56:32;12.30;75.30
10171;DHT22;5127;50.922;6.988;2023-02-19T07:59:00;12.30;75.30
10171;DHT22;5127;50.922;6.988;2023-02-19T08:01:28;12.30;75.30
10171;DHT22;5127;50.922;6.988;2023-02-19T08:04:27;12.30;75.40
10171;DHT22;5127;50.922;6.988;2023-02-19T08:06:54;12.30;75.50
10171;DHT22;5127;50.922;6.988;2023-02-19T08:09:22;12.40;75.80
10171;DHT22;5127;50.922;6.988;2023-02-19T08:11:49;12.40;76.00
10171;DHT22;5127;50.922;6.988;2023-02-19T08:14:33;12.40;76.00
10171;DHT22;5127;50.922;6.988;2023-02-19T08:17:02;12.50;76.00
10171;DHT22;5127;50.922;6.988;2023-02-19T08:19:29;12.50;75.90
10171;DHT22;5127;50.922;6.988;2023-02-19T08:21:56;12.60;75.90
10171;DHT22;5127;50.922;6.988;2023-02-19T08:24:24;12.60;75.80
10171;DHT22;5127;50.922;6.988;2023-02-19T08:26:51;12.60;75.80
10171;DHT22;5127;50.922;6.988;2023-02-19T08:29:18;12.60;75.80
10171;DHT22;5127;50.922;6.988;2023-02-19T08:31:45;12.60;75.80
10171;DHT22;5127;50.922;6.988;2023-02-19T08:34:14;12.70;75.90
10171;DHT22;5127;50.922;6.988;2023-02-19T08:36:41;12.70;75.80
10171;DHT22;5127;50.922;6.988;2023-02-19T08:39:09;12.70;75.70
10171;DHT22;5127;50.922;6.988;2023-02-19T08:41:36;12.70;75.70
10171;DHT22;5127;50.922;6.988;2023-02-19T08:44:04;12.70;75.70
10171;DHT22;5127;50.922;6.988;2023-02-19T08:46:31;12.70;75.80
10171;DHT22;5127;50.922;6.988;2023-02-19T08:48:58;12.70;75.80
10171;DHT22;5127;50.922;6.988;2023-02-19T08:51:26;12.70;75.80
10171;DHT22;5127;50.922;6.988;2023-02-19T08:53:54;12.70;75.70
10171;DHT22;5127;50.922;6.988;2023-02-19T08:56:21;12.70;75.70
10171;DHT22;5127;50.922;6.988;2023-02-19T08:58:48;12.80;75.70
10171;DHT22;5127;50.922;6.988;2023-02-19T09:01:16;12.70;75.50
10171;DHT22;5127;50.922;6.988;2023-02-19T09:03:44;12.80;75.60
10171;DHT22;5127;50.922;6.988;2023-02-19T09:06:14;12.80;75.70
10171;DHT22;5127;50.922;6.988;2023-02-19T09:08:43;12.80;75.60
10171;DHT22;5127;50.922;6.988;2023-02-19T09:11:10;12.80;75.80
10171;DHT22;5127;50.922;6.988;2023-02-19T09:13:38;12.80;76.00
10171;DHT22;5127;50.922;6.988;2023-02-19T09:16:05;12.80;76.30
10171;DHT22;5127;50.922;6.988;2023-02-19T09:18:32;12.90;76.50
10171;DHT22;5127;50.922;6.988;2023-02-19T09:21:00;13.00;76.60
10171;DHT22;5127;50.922;6.988;2023-02-19T09:23:27;13.00;76.40
10171;DHT22;5127;50.922;6.988;2023-02-19T09:25:59;13.10;76.40
10171;DHT22;5127;50.922;6.988;2023-02-19T09:28:28;13.10;75.90
10171;DHT22;5127;50.922;6.988;2023-02-19T09:30:55;13.30;76.50
10171;DHT22;5127;50.922;6.988;2023-02-19T09:33:22;13.20;76.10
10171;DHT22;5127;50.922;6.988;2023-02-19T09:35:49;13.30;76.00
10171;DHT22;5127;50.922;6.988;2023-02-19T09:38:17;13.30;75.70
10171;DHT22;5127;50.922;6.988;2023-02-19T09:40:44;13.30;75.50
10171;DHT22;5127;50.922;6.988;2023-02-19T09:43:16;13.30;75.30
10171;DHT22;5127;50.922;6.988;2023-02-19T09:45:44;13.30;75.00
10171;DHT22;5127;50.922;6.988;2023-02-19T09:48:12;13.30;75.20
10171;DHT22;5127;50.922;6.988;2023-02-19T09:50:42;13.30;75.10
10171;DHT22;5127;50.922;6.988;2023-02-19T09:53:14;13.30;74.90
10171;DHT22;5127;50.922;6.988;2023-02-19T09:55:44;13.30;74.90
10171;DHT22;5127;50.922;6.988;2023-02-19T09:58:22;13.30;75.00
10171;DHT22;5127;50.922;6.988;2023-02-19T10:00:54;13.20;74.40
10171;DHT22;5127;50.922;6.988;2023-02-19T10:03:24;13.30;75.20
10171;DHT22;5127;50.922;6.988;2023-02-19T10:05:56;13.20;75.10
10171;DHT22;5127;50.922;6.988;2023-02-19T10:08:23;13.30;75.40
10171;DHT22;5127;50.922;6.988;2023-02-19T10:10:52;13.30;75.20
10171;DHT22;5127;50.922;6.988;2023-02-19T10:13:22;13.30;75.00
10171;DHT22;5127;50.922;6.988;2023-02-19T10:15:51;13.30;74.90
10171;DHT22;5127;50.922;6.988;2023-02-19T10:18:21;13.30;75.00
10171;DHT22;5127;50.922;6.988;2023-02-19T10:20:50;13.20;75.10
10171;DHT22;5127;50.922;6.988;2023-02-19T10:23:18;13.30;75.60
10171;DHT22;5127;50.922;6.988;2023-02-19T10:25:47;13.30;75.60
10171;DHT22;5127;50.922;6.988;2023-02-19T10:28:18;13.30;75.60
10171;DHT22;5127;50.922;6.988;2023-02-19T10:30:51;13.30;75.40
10171;DHT22;5127;50.922;6.988;2023-02-19T10:33:19;13.30;75.30
10171;DHT22;5127;50.922;6.988;2023-02-19T10:35:52;13.30;75.50
10171;DHT22;5127;50.922;6.988;2023-02-19T10:38:22;13.40;75.20
10171;DHT22;5127;50.922;6.988;2023-02-19T10:40:58;13.40;75.50
10171;DHT22;5127;50.922;6.988;2023-02-19T10:43:29;13.40;75.10
10171;DHT22;5127;50.922;6.988;2023-02-19T10:46:03;13.40;75.20
10171;DHT22;5127;50.922;6.988;2023-02-19T10:48:34;13.40;75.00
10171;DHT22;5127;50.922;6.988;2023-02-19T10:51:05;13.40;75.10
10171;DHT22;5127;50.922;6.988;2023-02-19T10:53:43;13.40;75.00
10171;DHT22;5127;50.922;6.988;2023-02-19T10:56:13;13.40;74.70
10171;DHT22;5127;50.922;6.988;2023-02-19T10:58:41;13.30;75.10
10171;DHT22;5127;50.922;6.988;2023-02-19T11:01:14;13.30;75.60
10171;DHT22;5127;50.922;6.988;2023-02-19T11:03:42;13.30;75.50
10171;DHT22;5127;50.922;6.988;2023-02-19T11:06:10;13.30;75.60
10171;DHT22;5127;50.922;6.988;2023-02-19T11:08:45;13.40;75.70
10171;DHT22;5127;50.922;6.988;2023-02-19T11:11:31;13.40;75.40
10171;DHT22;5127;50.922;6.988;2023-02-19T11:14:01;13.40;74.80
10171;DHT22;5127;50.922;6.988;2023-02-19T11:16:50;13.40;75.70
10171;DHT22;5127;50.922;6.988;2023-02-19T11:19:28;13.50;75.00
10171;DHT22;5127;50.922;6.988;2023-02-19T11:21:57;13.50;75.40
10171;DHT22;5127;50.922;6.988;2023-02-19T11:24:29;13.50;76.10
10171;DHT22;5127;50.922;6.988;2023-02-19T11:27:00;13.60;75.90
10171;DHT22;5127;50.922;6.988;2023-02-19T11:29:28;13.60;76.00
10171;DHT22;5127;50.922;6.988;2023-02-19T11:32:23;13.70;76.10
10171;DHT22;5127;50.922;6.988;2023-02-19T11:34:51;13.80;75.10
10171;DHT22;5127;50.922;6.988;2023-02-19T11:37:19;13.80;75.90
10171;DHT22;5127;50.922;6.988;2023-02-19T11:39:48;13.80;75.80
10171;DHT22;5127;50.922;6.988;2023-02-19T11:42:37;13.80;75.90
10171;DHT22;5127;50.922;6.988;2023-02-19T11:45:16;13.90;74.90
10171;DHT22;5127;50.922;6.988;2023-02-19T11:48:12;13.90;75.20
10171;DHT22;5127;50.922;6.988;2023-02-19T11:50:51;14.00;74.50
10171;DHT22;5127;50.922;6.988;2023-02-19T11:53:25;14.00;75.00
10171;DHT22;5127;50.922;6.988;2023-02-19T11:56:05;14.00;75.20
10171;DHT22;5127;50.922;6.988;2023-02-19T11:58:50;14.00;74.60
10171;DHT22;5127;50.922;6.988;2023-02-19T12:01:23;14.00;74.70
10171;DHT22;5127;50.922;6.988;2023-02-19T12:04:24;14.00;75.10
10171;DHT22;5127;50.922;6.988;2023-02-19T12:10:24;14.00;75.10
10171;DHT22;5127;50.922;6.988;2023-02-19T12:13:01;14.00;75.60
10171;DHT22;5127;50.922;6.988;2023-02-19T12:15:46;14.10;75.60
10171;DHT22;5127;50.922;6.988;2023-02-19T12:18:39;14.20;75.30
10171;DHT22;5127;50.922;6.988;2023-02-19T12:21:21;14.20;75.10
10171;DHT22;5127;50.922;6.988;2023-02-19T12:24:28;14.30;75.50
10171;DHT22;5127;50.922;6.988;2023-02-19T12:27:14;14.40;74.90
10171;DHT22;5127;50.922;6.988;2023-02-19T12:32:51;14.50;75.60
10171;DHT22;5127;50.922;6.988;2023-02-19T12:35:45;14.60;74.80
10171;DHT22;5127;50.922;6.988;2023-02-19T12:38:20;14.70;74.40
10171;DHT22;5127;50.922;6.988;2023-02-19T12:41:02;14.70;75.30
10171;DHT22;5127;50.922;6.988;2023-02-19T12:43:36;14.80;74.80
10171;DHT22;5127;50.922;6.988;2023-02-19T12:46:09;14.80;75.60
10171;DHT22;5127;50.922;6.988;2023-02-19T12:48:42;14.90;75.90
10171;DHT22;5127;50.922;6.988;2023-02-19T12:51:16;15.00;75.70
10171;DHT22;5127;50.922;6.988;2023-02-19T12:53:50;15.00;75.40
10171;DHT22;5127;50.922;6.988;2023-02-19T12:56:24;15.10;75.40
10171;DHT22;5127;50.922;6.988;2023-02-19T12:58:54;15.20;74.90
10171;DHT22;5127;50.922;6.988;2023-02-19T13:01:27;15.30;75.20
10171;DHT22;5127;50.922;6.988;2023-02-19T13:04:12;15.30;74.80
10171;DHT22;5127;50.922;6.988;2023-02-19T13:06:43;15.30;73.70
10171;DHT22;5127;50.922;6.988;2023-02-19T13:09:14;15.30;74.20
10171;DHT22;5127;50.922;6.988;2023-02-19T13:11:48;15.30;73.70
10171;DHT22;5127;50.922;6.988;2023-02-19T13:14:20;15.30;73.60
10171;DHT22;5127;50.922;6.988;2023-02-19T13:16:53;15.20;73.10
10171;DHT22;5127;50.922;6.988;2023-02-19T13:19:21;15.20;73.20
10171;DHT22;5127;50.922;6.988;2023-02-19T13:21:55;15.10;73.30
10171;DHT22;5127;50.922;6.988;2023-02-19T13:24:44;15.00;72.60
10171;DHT22;5127;50.922;6.988;2023-02-19T13:27:35;14.90;73.10
10171;DHT22;5127;50.922;6.988;2023-02-19T13:30:23;14.90;72.50
10171;DHT22;5127;50.922;6.988;2023-02-19T13:33:04;14.80;72.40
10171;DHT22;5127;50.922;6.988;2023-02-19T13:35:59;14.70;72.70
10171;DHT22;5127;50.922;6.988;2023-02-19T13:38:31;14.60;72.20
10171;DHT22;5127;50.922;6.988;2023-02-19T13:41:00;14.50;73.10
10171;DHT22;5127;50.922;6.988;2023-02-19T13:43:30;14.50;73.20
10171;DHT22;5127;50.922;6.988;2023-02-19T13:46:01;14.40;73.20
10171;DHT22;5127;50.922;6.988;2023-02-19T13:48:31;14.30;73.20
10171;DHT22;5127;50.922;6.988;2023-02-19T13:51:37;14.30;73.10
10171;DHT22;5127;50.922;6.988;2023-02-19T13:54:18;14.20;72.10
10171;DHT22;5127;50.922;6.988;2023-02-19T13:56:47;14.20;72.70
10171;DHT22;5127;50.922;6.988;2023-02-19T13:59:34;14.10;73.40
10171;DHT22;5127;50.922;6.988;2023-02-19T14:02:10;14.10;72.60
10171;DHT22;5127;50.922;6.988;2023-02-19T14:04:48;14.00;73.10
10171;DHT22;5127;50.922;6.988;2023-02-19T14:07:32;14.00;73.20
10171;DHT22;5127;50.922;6.988;2023-02-19T14:10:00;14.00;73.50
10171;DHT22;5127;50.922;6.988;2023-02-19T14:12:34;14.00;74.00
10171;DHT22;5127;50.922;6.988;2023-02-19T14:18:40;14.00;73.00
10171;DHT22;5127;50.922;6.988;2023-02-19T14:21:15;13.90;72.90
10171;DHT22;5127;50.922;6.988;2023-02-19T14:23:44;13.90;73.30
10171;DHT22;5127;50.922;6.988;2023-02-19T14:26:17;13.90;73.80
10171;DHT22;5127;50.922;6.988;2023-02-19T14:28:47;13.90;74.00
10171;DHT22;5127;50.922;6.988;2023-02-19T14:31:23;14.00;74.10
10171;DHT22;5127;50.922;6.988;2023-02-19T14:33:53;13.90;73.80
10171;DHT22;5127;50.922;6.988;2023-02-19T14:36:41;13.90;74.30
10171;DHT22;5127;50.922;6.988;2023-02-19T14:39:13;13.90;73.50
10171;DHT22;5127;50.922;6.988;2023-02-19T14:41:44;13.90;74.50
10171;DHT22;5127;50.922;6.988;2023-02-19T14:44:17;14.00;74.40
10171;DHT22;5127;50.922;6.988;2023-02-19T14:46:50;14.00;74.20
10171;DHT22;5127;50.922;6.988;2023-02-19T14:49:25;14.00;74.00
10171;DHT22;5127;50.922;6.988;2023-02-19T14:51:56;14.00;73.70
10171;DHT22;5127;50.922;6.988;2023-02-19T14:54:40;14.10;74.00
10171;DHT22;5127;50.922;6.988;2023-02-19T14:57:16;14.10;73.10
10171;DHT22;5127;50.922;6.988;2023-02-19T14:59:56;14.00;73.50
10171;DHT22;5127;50.922;6.988;2023-02-19T15:02:25;14.00;72.90
10171;DHT22;5127;50.922;6.988;2023-02-19T15:04:53;14.00;73.80
10171;DHT22;5127;50.922;6.988;2023-02-19T15:07:22;14.00;73.80
10171;DHT22;5127;50.922;6.988;2023-02-19T15:09:53;14.00;73.80
10171;DHT22;5127;50.922;6.988;2023-02-19T15:12:24;13.90;73.60
10171;DHT22;5127;50.922;6.988;2023-02-19T15:14:58;13.90;73.70
10171;DHT22;5127;50.922;6.988;2023-02-19T15:17:28;13.90;73.60
10171;DHT22;5127;50.922;6.988;2023-02-19T15:19:58;13.90;73.70
10171;DHT22;5127;50.922;6.988;2023-02-19T15:22:28;13.90;73.50
10171;DHT22;5127;50.922;6.988;2023-02-19T15:24:59;13.90;73.40
10171;DHT22;5127;50.922;6.988;2023-02-19T15:27:27;13.90;73.30
10171;DHT22;5127;50.922;6.988;2023-02-19T15:29:55;13.80;73.60
10171;DHT22;5127;50.922;6.988;2023-02-19T15:32:25;13.80;73.50
10171;DHT22;5127;50.922;6.988;2023-02-19T15:34:53;13.80;73.30
10171;DHT22;5127;50.922;6.988;2023-02-19T15:37:22;13.80;73.60
10171;DHT22;5127;50.922;6.988;2023-02-19T15:39:52;13.80;73.50
10171;DHT22;5127;50.922;6.988;2023-02-19T15:42:23;13.80;73.40
10171;DHT22;5127;50.922;6.988;2023-02-19T15:44:54;13.80;73.50
10171;DHT22;5127;50.922;6.988;2023-02-19T15:47:27;13.80;73.40
10171;DHT22;5127;50.922;6.988;2023-02-19T15:50:03;13.70;73.30
10171;DHT22;5127;50.922;6.988;2023-02-19T15:52:38;13.70;73.30
10171;DHT22;5127;50.922;6.988;2023-02-19T15:55:20;13.70;73.20
10171;DHT22;5127;50.922;6.988;2023-02-19T15:57:52;13.80;72.80
10171;DHT22;5127;50.922;6.988;2023-02-19T16:00:28;13.80;73.30
10171;DHT22;5127;50.922;6.988;2023-02-19T16:02:58;13.80;73.00
10171;DHT22;5127;50.922;6.988;2023-02-19T16:05:27;13.70;73.10
10171;DHT22;5127;50.922;6.988;2023-02-19T16:08:06;13.70;73.10
10171;DHT22;5127;50.922;6.988;2023-02-19T16:10:33;13.70;72.50
10171;DHT22;5127;50.922;6.988;2023-02-19T16:13:02;13.70;73.20
10171;DHT22;5127;50.922;6.988;2023-02-19T16:15:31;13.70;73.10
10171;DHT22;5127;50.922;6.988;2023-02-19T16:18:00;13.70;73.00
10171;DHT22;5127;50.922;6.988;2023-02-19T16:20:30;13.70;73.00
10171;DHT22;5127;50.922;6.988;2023-02-19T16:23:01;13.60;72.90
10171;DHT22;5127;50.922;6.988;2023-02-19T16:25:33;13.60;72.70
10171;DHT22;5127;50.922;6.988;2023-02-19T16:28:10;13.60;72.50
10171;DHT22;5127;50.922;6.988;2023-02-19T16:30:38;13.60;72.20